createdAt,value
2023-08-23T00:01:23.429Z,15.10
2023-08-23T00:04:09.616Z,15.00
2023-08-23T00:06:55.208Z,15.00
2023-08-23T00:09:40.906Z,15.10
2023-08-23T00:12:26.224Z,15.00
2023-08-23T00:15:11.730Z,15.00
2023-08-23T00:17:57.397Z,15.00
2023-08-23T00:20:43.389Z,15.00
2023-08-23T00:23:28.901Z,14.90
2023-08-23T00:26:15.285Z,15.00
2023-08-23T00:29:00.962Z,14.90
2023-08-23T00:31:46.752Z,15.00
2023-08-23T00:34:32.539Z,15.00
2023-08-23T00:37:18.086Z,15.00
2023-08-23T00:40:05.330Z,14.90
2023-08-23T00:42:51.428Z,14.90
2023-08-23T00:45:39.184Z,14.90
2023-08-23T00:48:25.310Z,14.90
2023-08-23T00:51:12.989Z,14.90
2023-08-23T00:53:59.559Z,14.80
2023-08-23T00:56:45.211Z,14.80
2023-08-23T00:59:32.895Z,14.70
2023-08-23T01:02:19.068Z,14.70
2023-08-23T01:05:05.299Z,14.60
2023-08-23T01:08:29.837Z,14.50
2023-08-23T01:11:32.511Z,14.40
2023-08-23T01:15:07.105Z,14.40
2023-08-23T01:17:54.104Z,14.40
2023-08-23T01:20:40.032Z,14.40
2023-08-23T01:23:29.066Z,14.50
2023-08-23T01:26:14.954Z,14.50
2023-08-23T01:29:00.330Z,14.60
2023-08-23T01:31:49.610Z,14.60
2023-08-23T01:34:45.389Z,14.70
2023-08-23T01:37:31.356Z,14.70
2023-08-23T01:40:17.949Z,14.80
2023-08-23T01:43:03.803Z,14.80
2023-08-23T01:45:50.277Z,14.80
2023-08-23T01:48:35.747Z,14.80
2023-08-23T01:51:21.193Z,14.80
2023-08-23T01:54:06.776Z,14.80
2023-08-23T01:56:52.315Z,14.80
2023-08-23T01:59:38.464Z,14.80
2023-08-23T02:02:24.383Z,14.80
2023-08-23T02:05:09.887Z,14.80
2023-08-23T02:07:55.595Z,14.90
2023-08-23T02:10:41.099Z,14.90
2023-08-23T02:13:26.845Z,14.90
2023-08-23T02:16:12.813Z,14.90
2023-08-23T02:18:58.762Z,15.00
2023-08-23T02:21:44.233Z,15.00
2023-08-23T02:24:29.659Z,15.00
2023-08-23T02:27:15.412Z,15.00
2023-08-23T02:30:01.091Z,15.00
2023-08-23T02:32:46.689Z,15.00
2023-08-23T02:35:34.837Z,15.00
2023-08-23T02:38:20.500Z,14.90
2023-08-23T02:41:06.099Z,14.80
2023-08-23T02:43:51.764Z,14.80
2023-08-23T02:46:37.134Z,14.70
2023-08-23T02:49:23.160Z,14.70
2023-08-23T02:52:08.695Z,14.70
2023-08-23T02:54:54.261Z,14.70
2023-08-23T02:57:39.986Z,14.70
2023-08-23T03:00:25.577Z,14.80
2023-08-23T03:03:11.259Z,14.80
2023-08-23T03:05:58.797Z,14.90
2023-08-23T03:08:44.551Z,14.90
2023-08-23T03:11:30.137Z,14.90
2023-08-23T03:14:15.768Z,14.90
2023-08-23T03:17:01.073Z,14.90
2023-08-23T03:19:46.717Z,14.90
2023-08-23T03:22:32.123Z,14.80
2023-08-23T03:25:17.645Z,14.80
2023-08-23T03:28:03.198Z,14.80
2023-08-23T03:30:48.981Z,14.80
2023-08-23T03:33:34.763Z,14.80
2023-08-23T03:36:20.524Z,14.70
2023-08-23T03:39:06.033Z,14.70
2023-08-23T03:41:51.412Z,14.70
2023-08-23T03:44:36.972Z,14.70
2023-08-23T03:47:22.844Z,14.70
2023-08-23T03:50:09.525Z,14.70
2023-08-23T03:52:55.320Z,14.70
2023-08-23T03:55:40.862Z,14.70
2023-08-23T03:58:26.562Z,14.70
2023-08-23T04:01:12.137Z,14.70
2023-08-23T04:03:57.794Z,14.80
2023-08-23T04:06:43.688Z,14.80
2023-08-23T04:09:29.396Z,14.80
2023-08-23T04:12:15.461Z,14.80
2023-08-23T04:15:01.804Z,14.90
2023-08-23T04:17:47.444Z,14.90
2023-08-23T04:20:33.615Z,15.00
2023-08-23T04:23:19.594Z,15.00
2023-08-23T04:26:05.073Z,15.10
2023-08-23T04:28:51.277Z,15.20
2023-08-23T04:31:37.151Z,15.20
2023-08-23T04:34:22.793Z,15.30
2023-08-23T04:37:08.987Z,15.40
2023-08-23T04:39:54.830Z,15.50
2023-08-23T04:42:40.652Z,15.70
2023-08-23T04:45:26.297Z,15.80
2023-08-23T04:48:11.823Z,16.00
2023-08-23T04:51:00.644Z,16.10
2023-08-23T04:53:46.243Z,16.30
2023-08-23T04:56:31.800Z,16.40
2023-08-23T04:59:17.517Z,16.40
2023-08-23T05:02:03.062Z,16.50
2023-08-23T05:04:51.946Z,16.60
2023-08-23T05:07:37.980Z,16.90
2023-08-23T05:10:23.669Z,17.10
2023-08-23T05:13:09.733Z,17.30
2023-08-23T05:15:59.213Z,17.60
2023-08-23T05:18:45.042Z,17.90
2023-08-23T05:21:30.867Z,18.10
2023-08-23T05:24:16.956Z,18.30
2023-08-23T05:27:03.080Z,18.40
2023-08-23T05:29:49.288Z,18.50
2023-08-23T05:32:35.812Z,18.50
2023-08-23T05:35:21.489Z,18.60
2023-08-23T05:38:07.385Z,18.70
2023-08-23T05:40:53.107Z,18.80
2023-08-23T05:43:38.787Z,19.00
2023-08-23T05:46:24.697Z,19.30
2023-08-23T05:49:10.432Z,19.50
2023-08-23T05:51:56.085Z,19.70
2023-08-23T05:54:41.743Z,19.80
2023-08-23T05:57:27.581Z,20.00
2023-08-23T06:00:14.321Z,20.10
2023-08-23T06:02:59.828Z,20.10
2023-08-23T06:05:45.924Z,20.30
2023-08-23T06:08:32.063Z,20.30
2023-08-23T06:11:17.534Z,20.30
2023-08-23T06:14:25.263Z,20.30
2023-08-23T06:17:11.151Z,20.30
2023-08-23T06:19:56.607Z,20.30
2023-08-23T06:22:42.113Z,20.30
2023-08-23T06:25:27.872Z,20.30
2023-08-23T06:28:13.410Z,20.40
2023-08-23T06:30:59.874Z,20.50
2023-08-23T06:33:45.669Z,20.70
2023-08-23T06:36:31.143Z,20.80
2023-08-23T06:39:32.604Z,20.90
2023-08-23T06:42:19.424Z,20.90
2023-08-23T06:45:07.052Z,20.90
2023-08-23T06:47:52.806Z,20.90
2023-08-23T06:50:38.812Z,21.00
2023-08-23T06:53:24.561Z,21.10
2023-08-23T06:56:12.260Z,21.10
2023-08-23T06:58:57.956Z,21.10
2023-08-23T07:01:43.580Z,21.20
2023-08-23T07:04:29.611Z,21.20
2023-08-23T07:07:15.531Z,21.30
2023-08-23T07:10:07.942Z,21.40
2023-08-23T07:13:03.604Z,21.50
2023-08-23T07:15:49.016Z,21.50
2023-08-23T07:18:34.628Z,21.60
2023-08-23T07:21:20.066Z,21.60
2023-08-23T07:24:05.992Z,21.70
2023-08-23T07:26:51.588Z,21.80
2023-08-23T07:29:37.446Z,22.00
2023-08-23T07:32:23.241Z,22.00
2023-08-23T07:35:09.608Z,22.10
2023-08-23T07:37:55.217Z,22.10
2023-08-23T07:40:40.930Z,22.20
2023-08-23T07:43:27.739Z,22.30
2023-08-23T07:46:13.255Z,22.40
2023-08-23T07:48:59.477Z,22.40
2023-08-23T07:51:45.358Z,22.40
2023-08-23T07:54:30.761Z,22.40
2023-08-23T07:57:16.290Z,22.60
2023-08-23T08:00:02.108Z,22.60
2023-08-23T08:02:47.827Z,22.60
2023-08-23T08:05:35.057Z,22.80
2023-08-23T08:08:20.812Z,22.90
2023-08-23T08:11:07.041Z,22.90
2023-08-23T08:13:52.591Z,23.00
2023-08-23T08:16:38.399Z,23.10
2023-08-23T08:19:24.294Z,23.10
2023-08-23T08:22:09.822Z,23.20
2023-08-23T08:24:55.570Z,23.30
2023-08-23T08:27:41.800Z,23.40
2023-08-23T08:30:27.585Z,23.40
2023-08-23T08:33:13.101Z,23.50
2023-08-23T08:35:59.100Z,23.50
2023-08-23T08:38:44.746Z,23.70
2023-08-23T08:41:30.323Z,23.70
2023-08-23T08:44:16.412Z,23.70
2023-08-23T08:47:02.300Z,23.80
2023-08-23T08:49:48.321Z,23.90
2023-08-23T08:52:34.135Z,23.90
2023-08-23T08:55:22.956Z,24.00
2023-08-23T08:58:10.299Z,24.00
2023-08-23T09:00:58.202Z,24.20
2023-08-23T09:03:44.619Z,24.30
2023-08-23T09:06:31.473Z,24.40
2023-08-23T09:09:17.186Z,24.60
2023-08-23T09:12:03.184Z,24.70
2023-08-23T09:14:52.199Z,24.70
2023-08-23T09:17:38.553Z,24.80
2023-08-23T09:20:25.242Z,24.90
2023-08-23T09:23:10.742Z,24.90
2023-08-23T09:25:56.851Z,25.10
2023-08-23T09:28:43.356Z,25.20
2023-08-23T09:31:29.392Z,25.10
2023-08-23T09:34:17.357Z,25.10
2023-08-23T09:37:09.954Z,25.10
2023-08-23T09:39:55.938Z,25.20
2023-08-23T09:42:43.253Z,25.30
2023-08-23T09:45:29.867Z,25.70
2023-08-23T09:48:20.114Z,25.80
2023-08-23T09:51:07.210Z,26.00
2023-08-23T09:53:57.604Z,26.20
2023-08-23T09:56:43.374Z,26.40
2023-08-23T09:59:29.273Z,26.40
2023-08-23T10:02:18.406Z,26.50
2023-08-23T10:05:07.040Z,26.80
2023-08-23T10:07:54.862Z,26.70
2023-08-23T10:10:44.279Z,26.70
2023-08-23T10:13:35.815Z,26.90
2023-08-23T10:16:23.735Z,27.20
2023-08-23T10:19:09.986Z,28.40
2023-08-23T10:21:56.464Z,29.40
2023-08-23T10:24:47.351Z,30.40
2023-08-23T10:27:35.450Z,31.30
2023-08-23T10:30:29.111Z,32.30
2023-08-23T10:33:17.805Z,33.50
2023-08-23T10:36:03.491Z,34.30
2023-08-23T10:38:49.251Z,33.30
2023-08-23T10:41:35.838Z,33.40
2023-08-23T10:44:23.081Z,34.20
2023-08-23T10:47:09.168Z,35.00
2023-08-23T10:49:55.826Z,35.80
2023-08-23T10:52:41.903Z,36.60
2023-08-23T10:55:27.883Z,37.00
2023-08-23T10:58:17.998Z,36.80
2023-08-23T11:01:05.080Z,36.40
2023-08-23T11:03:51.152Z,36.10
2023-08-23T11:06:36.983Z,35.50
2023-08-23T11:09:22.785Z,35.10
2023-08-23T11:12:09.686Z,34.80
2023-08-23T11:14:57.666Z,34.40
2023-08-23T11:17:43.118Z,34.30
2023-08-23T11:20:29.382Z,34.20
2023-08-23T11:23:15.016Z,33.70
2023-08-23T11:26:00.589Z,33.60
2023-08-23T11:28:46.232Z,33.50
2023-08-23T11:31:34.803Z,33.70
2023-08-23T11:34:21.795Z,33.80
2023-08-23T11:37:11.801Z,33.60
2023-08-23T11:40:02.749Z,33.60
2023-08-23T11:42:48.941Z,32.80
2023-08-23T11:45:39.441Z,32.50
2023-08-23T11:48:25.276Z,32.60
2023-08-23T11:51:10.750Z,32.90
2023-08-23T11:53:56.704Z,33.20
2023-08-23T11:56:43.217Z,33.30
2023-08-23T11:59:28.811Z,33.50
2023-08-23T12:02:14.341Z,33.30
2023-08-23T12:05:00.224Z,32.40
2023-08-23T12:07:47.573Z,32.00
2023-08-23T12:10:33.705Z,31.70
2023-08-23T12:13:19.395Z,31.50
2023-08-23T12:16:07.366Z,31.20
2023-08-23T12:18:52.888Z,30.60
2023-08-23T12:21:38.533Z,30.10
2023-08-23T12:24:24.170Z,29.90
2023-08-23T12:27:10.632Z,29.40
2023-08-23T12:29:56.565Z,29.10
2023-08-23T12:33:08.123Z,28.90
2023-08-23T12:35:54.094Z,28.70
2023-08-23T12:38:39.451Z,28.60
2023-08-23T12:41:25.109Z,28.70
2023-08-23T12:44:10.525Z,28.90
2023-08-23T12:46:56.032Z,28.80
2023-08-23T12:49:41.835Z,28.80
2023-08-23T12:52:27.741Z,29.10
2023-08-23T12:55:16.534Z,29.40
2023-08-23T12:58:02.010Z,29.80
2023-08-23T13:00:47.964Z,30.10
2023-08-23T13:03:34.022Z,30.50
2023-08-23T13:06:20.797Z,31.00
2023-08-23T13:09:07.162Z,31.10
2023-08-23T13:11:52.809Z,31.00
2023-08-23T13:14:38.456Z,31.50
2023-08-23T13:17:24.590Z,31.70
2023-08-23T13:20:11.393Z,31.40
2023-08-23T13:22:57.933Z,31.20
2023-08-23T13:25:43.650Z,31.00
2023-08-23T13:28:29.345Z,30.50
2023-08-23T13:31:16.384Z,30.20
2023-08-23T13:34:03.569Z,29.70
2023-08-23T13:36:49.526Z,29.30
2023-08-23T13:39:36.509Z,29.40
2023-08-23T13:42:22.640Z,29.40
2023-08-23T13:45:11.176Z,29.50
2023-08-23T13:47:57.548Z,29.40
2023-08-23T13:50:43.454Z,29.20
2023-08-23T13:53:29.592Z,29.00
2023-08-23T13:56:16.413Z,28.80
2023-08-23T13:59:02.661Z,28.60
2023-08-23T14:01:48.194Z,28.50
2023-08-23T14:04:34.198Z,28.40
2023-08-23T14:07:20.203Z,28.40
2023-08-23T14:10:06.709Z,28.40
2023-08-23T14:12:52.712Z,28.20
2023-08-23T14:15:38.322Z,28.00
2023-08-23T14:18:24.360Z,27.80
2023-08-23T14:21:10.353Z,27.60
2023-08-23T14:23:55.740Z,27.40
2023-08-23T14:26:41.488Z,27.20
2023-08-23T14:29:26.962Z,27.00
2023-08-23T14:32:13.061Z,26.90
2023-08-23T14:34:58.836Z,26.90
2023-08-23T14:37:46.911Z,26.70
2023-08-23T14:40:33.009Z,26.70
2023-08-23T14:43:18.503Z,26.60
2023-08-23T14:46:04.310Z,26.70
2023-08-23T14:48:50.146Z,26.70
2023-08-23T14:51:35.605Z,26.70
2023-08-23T14:54:21.053Z,26.70
2023-08-23T14:57:06.794Z,26.70
2023-08-23T14:59:52.251Z,26.70
2023-08-23T15:02:37.971Z,26.70
2023-08-23T15:05:23.855Z,26.60
2023-08-23T15:08:11.679Z,26.50
2023-08-23T15:10:58.770Z,26.50
2023-08-23T15:13:44.645Z,26.50
2023-08-23T15:16:30.260Z,26.60
2023-08-23T15:19:21.698Z,26.60
2023-08-23T15:22:13.042Z,26.50
2023-08-23T15:24:59.142Z,26.40
2023-08-23T15:27:44.678Z,26.40
2023-08-23T15:30:34.982Z,26.20
2023-08-23T15:33:22.029Z,26.10
2023-08-23T15:36:08.194Z,26.00
2023-08-23T15:38:53.975Z,25.90
2023-08-23T15:41:43.648Z,25.80
2023-08-23T15:44:29.378Z,25.70
2023-08-23T15:47:15.360Z,25.60
2023-08-23T15:50:01.425Z,25.60
2023-08-23T15:52:47.551Z,25.50
2023-08-23T15:55:33.541Z,25.40
2023-08-23T15:58:19.193Z,25.40
2023-08-23T16:01:06.894Z,25.30
2023-08-23T16:03:56.761Z,25.30
2023-08-23T16:06:42.273Z,25.20
2023-08-23T16:09:28.201Z,25.10
2023-08-23T16:12:13.913Z,25.10
2023-08-23T16:14:59.660Z,25.00
2023-08-23T16:17:45.182Z,25.00
2023-08-23T16:20:34.202Z,24.80
2023-08-23T16:23:22.320Z,24.80
2023-08-23T16:26:10.977Z,24.70
2023-08-23T16:28:59.045Z,24.70
2023-08-23T16:31:44.810Z,24.60
2023-08-23T16:34:30.909Z,24.50
2023-08-23T16:37:16.415Z,24.40
2023-08-23T16:40:02.513Z,24.30
2023-08-23T16:42:48.641Z,24.20
2023-08-23T16:45:34.800Z,24.10
2023-08-23T16:48:20.845Z,24.10
2023-08-23T16:51:09.220Z,24.00
2023-08-23T16:53:57.573Z,23.90
2023-08-23T16:56:43.985Z,23.80
2023-08-23T16:59:30.078Z,23.70
2023-08-23T17:02:15.655Z,23.60
2023-08-23T17:05:04.000Z,23.60
2023-08-23T17:07:50.269Z,23.40
2023-08-23T17:10:36.358Z,23.30
2023-08-23T17:13:22.164Z,23.20
2023-08-23T17:16:08.310Z,23.10
2023-08-23T17:18:54.176Z,23.10
2023-08-23T17:21:39.719Z,22.90
2023-08-23T17:24:25.263Z,22.80
2023-08-23T17:27:10.707Z,22.70
2023-08-23T17:29:58.727Z,22.60
2023-08-23T17:32:44.538Z,22.50
2023-08-23T17:35:30.528Z,22.40
2023-08-23T17:38:16.277Z,22.30
2023-08-23T17:41:06.460Z,22.20
2023-08-23T17:43:52.033Z,22.10
2023-08-23T17:46:42.788Z,22.10
2023-08-23T17:49:28.993Z,21.90
2023-08-23T17:52:14.850Z,21.90
2023-08-23T17:55:00.593Z,21.80
2023-08-23T17:57:46.535Z,21.80
2023-08-23T18:00:33.950Z,21.70
2023-08-23T18:03:19.668Z,21.70
2023-08-23T18:06:05.839Z,21.60
2023-08-23T18:08:51.735Z,21.60
2023-08-23T18:11:37.453Z,21.50
2023-08-23T18:14:23.240Z,21.50
2023-08-23T18:17:08.902Z,21.50
2023-08-23T18:19:54.552Z,21.40
2023-08-23T18:22:40.042Z,21.40
2023-08-23T18:25:25.777Z,21.40
2023-08-23T18:28:11.456Z,21.40
2023-08-23T18:30:57.437Z,21.30
2023-08-23T18:33:45.688Z,21.30
2023-08-23T18:36:31.694Z,21.20
2023-08-23T18:39:20.384Z,21.20
2023-08-23T18:42:08.262Z,21.20
2023-08-23T18:44:58.809Z,21.10
2023-08-23T18:47:52.181Z,21.10
2023-08-23T18:50:37.993Z,21.00
2023-08-23T18:53:23.893Z,20.90
2023-08-23T18:56:10.081Z,20.90
2023-08-23T18:58:55.733Z,20.80
2023-08-23T19:01:41.513Z,20.70
2023-08-23T19:04:28.123Z,20.50
2023-08-23T19:07:13.628Z,20.50
2023-08-23T19:10:00.164Z,20.40
2023-08-23T19:12:45.998Z,20.30
2023-08-23T19:15:31.774Z,20.30
2023-08-23T19:18:19.771Z,20.20
2023-08-23T19:21:05.508Z,20.10
2023-08-23T19:23:51.288Z,20.00
2023-08-23T19:26:37.864Z,20.00
2023-08-23T19:29:23.399Z,19.90
2023-08-23T19:32:11.766Z,19.80
2023-08-23T19:34:57.878Z,19.70
2023-08-23T19:37:46.251Z,19.60
2023-08-23T19:40:31.818Z,19.50
2023-08-23T19:43:18.016Z,19.40
2023-08-23T19:46:03.654Z,19.40
2023-08-23T19:48:49.499Z,19.20
2023-08-23T19:51:35.640Z,19.10
2023-08-23T19:54:21.624Z,19.10
2023-08-23T19:57:10.837Z,19.10
2023-08-23T19:59:59.828Z,19.00
2023-08-23T20:02:45.660Z,19.00
2023-08-23T20:05:31.586Z,18.90
2023-08-23T20:08:17.225Z,18.90
2023-08-23T20:11:03.989Z,18.80
2023-08-23T20:13:49.908Z,18.70
2023-08-23T20:16:36.253Z,18.70
2023-08-23T20:19:22.002Z,18.60
2023-08-23T20:22:07.669Z,18.50
2023-08-23T20:24:56.689Z,18.40
2023-08-23T20:27:42.605Z,18.40
2023-08-23T20:30:28.318Z,18.30
2023-08-23T20:33:14.518Z,18.20
2023-08-23T20:35:59.823Z,18.10
2023-08-23T20:38:45.513Z,18.00
2023-08-23T20:41:31.152Z,17.90
2023-08-23T20:44:17.270Z,17.90
2023-08-23T20:47:03.494Z,17.90
2023-08-23T20:49:49.201Z,17.90
2023-08-23T20:52:35.293Z,17.90
2023-08-23T20:55:20.602Z,17.80
2023-08-23T20:58:06.089Z,17.70
2023-08-23T21:01:08.763Z,17.70
2023-08-23T21:03:55.470Z,17.60
2023-08-23T21:06:41.562Z,17.60
2023-08-23T21:09:31.484Z,17.50
2023-08-23T21:12:17.435Z,17.40
2023-08-23T21:15:03.251Z,17.40
2023-08-23T21:17:49.121Z,17.30
2023-08-23T21:20:35.266Z,17.20
2023-08-23T21:23:21.264Z,17.20
2023-08-23T21:26:09.818Z,17.20
2023-08-23T21:28:55.697Z,17.10
2023-08-23T21:31:41.694Z,17.00
2023-08-23T21:34:27.685Z,16.90
2023-08-23T21:37:13.669Z,16.90
2023-08-23T21:39:59.565Z,16.80
2023-08-23T21:42:45.044Z,16.80
2023-08-23T21:45:31.193Z,16.80
2023-08-23T21:48:17.160Z,16.70
2023-08-23T21:51:06.090Z,16.70
2023-08-23T21:53:51.671Z,16.60
2023-08-23T21:56:37.254Z,16.60
2023-08-23T21:59:22.792Z,16.50
2023-08-23T22:02:12.228Z,16.50
2023-08-23T22:04:57.943Z,16.40
2023-08-23T22:07:43.544Z,16.40
2023-08-23T22:10:29.236Z,16.30
2023-08-23T22:13:15.181Z,16.30
2023-08-23T22:16:00.968Z,16.30
2023-08-23T22:18:48.568Z,16.20
2023-08-23T22:21:34.191Z,16.20
2023-08-23T22:24:20.137Z,16.20
2023-08-23T22:27:05.910Z,16.20
2023-08-23T22:29:51.690Z,16.10
2023-08-23T22:32:37.146Z,16.00
2023-08-23T22:35:23.043Z,16.00
2023-08-23T22:38:09.185Z,16.00
2023-08-23T22:40:58.363Z,15.90
2023-08-23T22:43:47.716Z,15.90
2023-08-23T22:46:36.495Z,15.90
2023-08-23T22:49:22.121Z,15.80
2023-08-23T22:52:08.069Z,15.80
2023-08-23T22:54:53.891Z,15.70
2023-08-23T22:57:41.925Z,15.70
2023-08-23T23:00:27.895Z,15.70
2023-08-23T23:03:13.804Z,15.60
2023-08-23T23:05:59.555Z,15.60
2023-08-23T23:08:45.221Z,15.60
2023-08-23T23:11:31.088Z,15.60
2023-08-23T23:14:19.683Z,15.60
2023-08-23T23:17:05.624Z,15.50
2023-08-23T23:19:51.909Z,15.50
2023-08-23T23:22:37.577Z,15.40
2023-08-23T23:25:23.280Z,15.40
2023-08-23T23:28:08.887Z,15.30
2023-08-23T23:30:54.326Z,15.20
2023-08-23T23:33:39.799Z,15.10
2023-08-23T23:36:31.279Z,15.10
2023-08-23T23:39:17.297Z,15.10
2023-08-23T23:42:02.777Z,15.00
2023-08-23T23:44:48.598Z,14.90
2023-08-23T23:47:34.439Z,14.90
2023-08-23T23:50:20.662Z,14.90
2023-08-23T23:53:06.474Z,14.80
2023-08-23T23:55:52.363Z,14.90
2023-08-23T23:58:37.976Z,14.90
